sensor_id;sensor_type;location;lat;lon;timestamp;P1;durP1;ratioP1;P2;durP2;ratioP2
32451;SDS011;45528;52.102;5.242;2023-05-14T00:03:10;19.3;;;12.8;;
32451;SDS011;45528;52.102;5.242;2023-05-14T00:04:47;21.6;;;12.4;;
32451;SDS011;45528;52.102;5.242;2023-05-14T00:06:23;21.9;;;13.5;;
32451;SDS011;45528;52.102;5.242;2023-05-14T00:09:35;20.2;;;13.5;;
32451;SDS011;45528;52.102;5.242;2023-05-14T00:11:12;19.91;;;14.1;;
32451;SDS011;45528;52.102;5.242;2023-05-14T00:12:49;23.8;;;13.9;;
32451;SDS011;45528;52.102;5.242;2023-05-14T00:14:26;24.7;;;14.9;;
32451;SDS011;45528;52.102;5.242;2023-05-14T00:17:39;22.3;;;13.8;;
32451;SDS011;45528;52.102;5.242;2023-05-14T00:19:15;18.2;;;14.9;;
32451;SDS011;45528;52.102;5.242;2023-05-14T00:20:51;24.6;;;14.3;;
32451;SDS011;45528;52.102;5.242;2023-05-14T00:24:04;18.91;;;12.5;;
32451;SDS011;45528;52.102;5.242;2023-05-14T00:25:40;22.7;;;13.7;;
32451;SDS011;45528;52.102;5.242;2023-05-14T00:27:16;21.6;;;13.0;;
32451;SDS011;45528;52.102;5.242;2023-05-14T00:30:29;18.8;;;12.6;;
32451;SDS011;45528;52.102;5.242;2023-05-14T00:32:06;18.7;;;12.7;;
32451;SDS011;45528;52.102;5.242;2023-05-14T00:33:42;19.2;;;12.1;;
32451;SDS011;45528;52.102;5.242;2023-05-14T00:36:56;19.41;;;12.5;;
32451;SDS011;45528;52.102;5.242;2023-05-14T00:38:32;16.11;;;11.6;;
32451;SDS011;45528;52.102;5.242;2023-05-14T00:40:08;18.7;;;12.0;;
32451;SDS011;45528;52.102;5.242;2023-05-14T00:41:45;19.8;;;12.9;;
32451;SDS011;45528;52.102;5.242;2023-05-14T00:44:58;20.3;;;12.2;;
32451;SDS011;45528;52.102;5.242;2023-05-14T00:46:35;16.9;;;11.8;;
32451;SDS011;45528;52.102;5.242;2023-05-14T00:48:11;18.7;;;12.4;;
32451;SDS011;45528;52.102;5.242;2023-05-14T00:51:24;18.3;;;12.2;;
32451;SDS011;45528;52.102;5.242;2023-05-14T00:53:01;16.61;;;11.9;;
32451;SDS011;45528;52.102;5.242;2023-05-14T00:54:37;18.61;;;11.9;;
32451;SDS011;45528;52.102;5.242;2023-05-14T00:57:52;16.7;;;12.0;;
32451;SDS011;45528;52.102;5.242;2023-05-14T00:59:31;17.0;;;11.4;;
32451;SDS011;45528;52.102;5.242;2023-05-14T01:01:08;18.5;;;11.9;;
32451;SDS011;45528;52.102;5.242;2023-05-14T01:02:44;18.7;;;12.3;;
32451;SDS011;45528;52.102;5.242;2023-05-14T01:05:57;18.5;;;11.4;;
32451;SDS011;45528;52.102;5.242;2023-05-14T01:07:52;17.61;;;11.6;;
32451;SDS011;45528;52.102;5.242;2023-05-14T01:09:45;19.2;;;11.8;;
32451;SDS011;45528;52.102;5.242;2023-05-14T01:11:39;19.11;;;12.4;;
32451;SDS011;45528;52.102;5.242;2023-05-14T01:13:25;19.11;;;12.7;;
32451;SDS011;45528;52.102;5.242;2023-05-14T01:15:09;16.61;;;11.7;;
32451;SDS011;45528;52.102;5.242;2023-05-14T01:18:32;17.61;;;12.7;;
32451;SDS011;45528;52.102;5.242;2023-05-14T01:20:09;18.41;;;11.9;;
32451;SDS011;45528;52.102;5.242;2023-05-14T01:21:47;17.8;;;12.2;;
32451;SDS011;45528;52.102;5.242;2023-05-14T01:24:59;20.8;;;13.5;;
32451;SDS011;45528;52.102;5.242;2023-05-14T01:26:35;18.7;;;12.7;;
32451;SDS011;45528;52.102;5.242;2023-05-14T01:28:12;20.3;;;13.4;;
32451;SDS011;45528;52.102;5.242;2023-05-14T01:29:55;17.41;;;12.7;;
32451;SDS011;45528;52.102;5.242;2023-05-14T01:33:18;17.11;;;13.1;;
32451;SDS011;45528;52.102;5.242;2023-05-14T01:34:57;19.61;;;12.7;;
32451;SDS011;45528;52.102;5.242;2023-05-14T01:36:35;18.61;;;13.0;;
32451;SDS011;45528;52.102;5.242;2023-05-14T01:38:14;19.5;;;13.1;;
32451;SDS011;45528;52.102;5.242;2023-05-14T01:41:32;16.7;;;12.2;;
32451;SDS011;45528;52.102;5.242;2023-05-14T01:43:08;19.8;;;12.5;;
32451;SDS011;45528;52.102;5.242;2023-05-14T01:44:45;18.2;;;13.1;;
32451;SDS011;45528;52.102;5.242;2023-05-14T01:47:57;19.0;;;13.3;;
32451;SDS011;45528;52.102;5.242;2023-05-14T01:49:34;23.2;;;13.8;;
32451;SDS011;45528;52.102;5.242;2023-05-14T01:51:10;22.8;;;14.0;;
32451;SDS011;45528;52.102;5.242;2023-05-14T01:52:47;21.2;;;14.6;;
32451;SDS011;45528;52.102;5.242;2023-05-14T01:55:59;18.8;;;13.2;;
32451;SDS011;45528;52.102;5.242;2023-05-14T01:57:35;24.5;;;14.8;;
32451;SDS011;45528;52.102;5.242;2023-05-14T01:59:11;24.5;;;14.8;;
32451;SDS011;45528;52.102;5.242;2023-05-14T02:02:25;20.11;;;14.3;;
32451;SDS011;45528;52.102;5.242;2023-05-14T02:04:01;21.8;;;14.4;;
32451;SDS011;45528;52.102;5.242;2023-05-14T02:05:37;20.6;;;14.4;;
32451;SDS011;45528;52.102;5.242;2023-05-14T02:08:49;20.5;;;14.6;;
32451;SDS011;45528;52.102;5.242;2023-05-14T02:10:25;19.11;;;13.8;;
32451;SDS011;45528;52.102;5.242;2023-05-14T02:12:01;19.0;;;13.7;;
32451;SDS011;45528;52.102;5.242;2023-05-14T02:15:15;21.4;;;13.6;;
32451;SDS011;45528;52.102;5.242;2023-05-14T02:16:51;23.4;;;14.8;;
32451;SDS011;45528;52.102;5.242;2023-05-14T02:18:27;20.5;;;14.0;;
32451;SDS011;45528;52.102;5.242;2023-05-14T02:20:04;18.11;;;13.9;;
32451;SDS011;45528;52.102;5.242;2023-05-14T02:23:18;22.6;;;13.2;;
32451;SDS011;45528;52.102;5.242;2023-05-14T02:24:54;19.2;;;13.7;;
32451;SDS011;45528;52.102;5.242;2023-05-14T02:26:30;21.0;;;14.3;;
32451;SDS011;45528;52.102;5.242;2023-05-14T02:29:42;22.0;;;15.3;;
32451;SDS011;45528;52.102;5.242;2023-05-14T02:31:19;20.41;;;14.9;;
32451;SDS011;45528;52.102;5.242;2023-05-14T02:32:55;23.3;;;16.3;;
32451;SDS011;45528;52.102;5.242;2023-05-14T02:36:09;23.4;;;15.0;;
32451;SDS011;45528;52.102;5.242;2023-05-14T02:37:46;21.9;;;15.6;;
32451;SDS011;45528;52.102;5.242;2023-05-14T02:39:22;20.6;;;15.1;;
32451;SDS011;45528;52.102;5.242;2023-05-14T02:40:58;23.4;;;15.0;;
32451;SDS011;45528;52.102;5.242;2023-05-14T02:44:10;22.6;;;15.6;;
32451;SDS011;45528;52.102;5.242;2023-05-14T02:45:47;22.6;;;15.6;;
32451;SDS011;45528;52.102;5.242;2023-05-14T02:47:23;20.6;;;15.1;;
32451;SDS011;45528;52.102;5.242;2023-05-14T02:50:36;21.8;;;15.4;;
32451;SDS011;45528;52.102;5.242;2023-05-14T02:52:12;21.7;;;14.3;;
32451;SDS011;45528;52.102;5.242;2023-05-14T02:53:48;22.9;;;14.9;;
32451;SDS011;45528;52.102;5.242;2023-05-14T02:57:01;18.61;;;14.9;;
32451;SDS011;45528;52.102;5.242;2023-05-14T02:58:37;20.3;;;14.9;;
32451;SDS011;45528;52.102;5.242;2023-05-14T03:00:13;23.8;;;14.8;;
32451;SDS011;45528;52.102;5.242;2023-05-14T03:01:50;26.5;;;15.8;;
32451;SDS011;45528;52.102;5.242;2023-05-14T03:05:04;22.2;;;16.11;;
32451;SDS011;45528;52.102;5.242;2023-05-14T03:06:40;22.5;;;15.4;;
32451;SDS011;45528;52.102;5.242;2023-05-14T03:08:17;22.8;;;15.8;;
32451;SDS011;45528;52.102;5.242;2023-05-14T03:11:29;23.4;;;15.8;;
32451;SDS011;45528;52.102;5.242;2023-05-14T03:13:05;24.6;;;15.8;;
32451;SDS011;45528;52.102;5.242;2023-05-14T03:14:41;23.3;;;15.6;;
32451;SDS011;45528;52.102;5.242;2023-05-14T03:17:54;20.8;;;15.1;;
32451;SDS011;45528;52.102;5.242;2023-05-14T03:19:31;24.7;;;15.5;;
32451;SDS011;45528;52.102;5.242;2023-05-14T03:21:07;24.3;;;15.9;;
32451;SDS011;45528;52.102;5.242;2023-05-14T03:22:44;21.2;;;15.0;;
32451;SDS011;45528;52.102;5.242;2023-05-14T03:25:57;21.2;;;15.0;;
32451;SDS011;45528;52.102;5.242;2023-05-14T03:27:34;26.4;;;16.4;;
32451;SDS011;45528;52.102;5.242;2023-05-14T03:29:11;25.2;;;17.91;;
32451;SDS011;45528;52.102;5.242;2023-05-14T03:32:23;30.1;;;17.7;;
32451;SDS011;45528;52.102;5.242;2023-05-14T03:33:59;24.6;;;15.7;;
32451;SDS011;45528;52.102;5.242;2023-05-14T03:35:35;25.9;;;17.0;;
32451;SDS011;45528;52.102;5.242;2023-05-14T03:38:47;25.7;;;16.61;;
32451;SDS011;45528;52.102;5.242;2023-05-14T03:40:24;26.2;;;16.2;;
32451;SDS011;45528;52.102;5.242;2023-05-14T03:42:00;24.4;;;16.2;;
32451;SDS011;45528;52.102;5.242;2023-05-14T03:45:12;27.3;;;17.61;;
32451;SDS011;45528;52.102;5.242;2023-05-14T03:46:48;23.6;;;16.5;;
32451;SDS011;45528;52.102;5.242;2023-05-14T03:48:24;25.0;;;17.3;;
32451;SDS011;45528;52.102;5.242;2023-05-14T03:50:00;28.2;;;17.7;;
32451;SDS011;45528;52.102;5.242;2023-05-14T03:53:14;24.3;;;16.8;;
32451;SDS011;45528;52.102;5.242;2023-05-14T03:54:51;25.9;;;16.9;;
32451;SDS011;45528;52.102;5.242;2023-05-14T03:56:27;27.2;;;17.41;;
32451;SDS011;45528;52.102;5.242;2023-05-14T03:59:39;25.1;;;16.9;;
32451;SDS011;45528;52.102;5.242;2023-05-14T04:01:15;31.3;;;18.91;;
32451;SDS011;45528;52.102;5.242;2023-05-14T04:02:52;30.9;;;17.5;;
32451;SDS011;45528;52.102;5.242;2023-05-14T04:06:04;24.4;;;17.2;;
32451;SDS011;45528;52.102;5.242;2023-05-14T04:07:40;25.7;;;17.2;;
32451;SDS011;45528;52.102;5.242;2023-05-14T04:09:16;22.5;;;16.7;;
32451;SDS011;45528;52.102;5.242;2023-05-14T04:10:52;24.5;;;16.5;;
32451;SDS011;45528;52.102;5.242;2023-05-14T04:14:05;22.5;;;16.61;;
32451;SDS011;45528;52.102;5.242;2023-05-14T04:15:41;26.4;;;17.7;;
32451;SDS011;45528;52.102;5.242;2023-05-14T04:17:17;25.4;;;16.9;;
32451;SDS011;45528;52.102;5.242;2023-05-14T04:20:30;26.1;;;17.7;;
32451;SDS011;45528;52.102;5.242;2023-05-14T04:22:06;26.2;;;16.9;;
32451;SDS011;45528;52.102;5.242;2023-05-14T04:23:42;27.8;;;17.41;;
32451;SDS011;45528;52.102;5.242;2023-05-14T04:26:55;28.1;;;17.5;;
32451;SDS011;45528;52.102;5.242;2023-05-14T04:28:31;27.7;;;17.7;;
32451;SDS011;45528;52.102;5.242;2023-05-14T04:30:08;30.9;;;19.3;;
32451;SDS011;45528;52.102;5.242;2023-05-14T04:33:20;27.1;;;17.7;;
32451;SDS011;45528;52.102;5.242;2023-05-14T04:34:56;26.1;;;17.7;;
32451;SDS011;45528;52.102;5.242;2023-05-14T04:36:33;26.0;;;17.61;;
32451;SDS011;45528;52.102;5.242;2023-05-14T04:38:09;26.2;;;18.5;;
32451;SDS011;45528;52.102;5.242;2023-05-14T04:41:21;26.5;;;18.3;;
32451;SDS011;45528;52.102;5.242;2023-05-14T04:42:57;27.2;;;17.41;;
32451;SDS011;45528;52.102;5.242;2023-05-14T04:44:34;26.1;;;18.3;;
32451;SDS011;45528;52.102;5.242;2023-05-14T04:47:47;25.6;;;18.0;;
32451;SDS011;45528;52.102;5.242;2023-05-14T04:49:23;27.0;;;17.3;;
32451;SDS011;45528;52.102;5.242;2023-05-14T04:50:59;27.5;;;17.7;;
32451;SDS011;45528;52.102;5.242;2023-05-14T04:54:12;29.0;;;17.91;;
32451;SDS011;45528;52.102;5.242;2023-05-14T04:55:49;25.3;;;17.41;;
32451;SDS011;45528;52.102;5.242;2023-05-14T04:57:25;29.5;;;18.2;;
32451;SDS011;45528;52.102;5.242;2023-05-14T04:59:01;25.5;;;17.3;;
32451;SDS011;45528;52.102;5.242;2023-05-14T05:02:14;26.4;;;16.61;;
32451;SDS011;45528;52.102;5.242;2023-05-14T05:03:50;26.4;;;17.91;;
32451;SDS011;45528;52.102;5.242;2023-05-14T05:05:27;27.4;;;17.61;;
32451;SDS011;45528;52.102;5.242;2023-05-14T05:08:40;27.4;;;17.61;;
32451;SDS011;45528;52.102;5.242;2023-05-14T05:10:16;23.5;;;17.11;;
32451;SDS011;45528;52.102;5.242;2023-05-14T05:11:53;24.0;;;15.9;;
32451;SDS011;45528;52.102;5.242;2023-05-14T05:15:06;20.2;;;14.7;;
32451;SDS011;45528;52.102;5.242;2023-05-14T05:16:44;22.0;;;15.3;;
32451;SDS011;45528;52.102;5.242;2023-05-14T05:18:20;19.41;;;14.6;;
32451;SDS011;45528;52.102;5.242;2023-05-14T05:19:56;24.1;;;14.5;;
32451;SDS011;45528;52.102;5.242;2023-05-14T05:23:09;23.0;;;15.1;;
32451;SDS011;45528;52.102;5.242;2023-05-14T05:24:46;22.4;;;14.3;;
32451;SDS011;45528;52.102;5.242;2023-05-14T05:26:23;21.6;;;14.3;;
32451;SDS011;45528;52.102;5.242;2023-05-14T05:29:35;24.9;;;15.0;;
32451;SDS011;45528;52.102;5.242;2023-05-14T05:31:11;20.6;;;14.3;;
32451;SDS011;45528;52.102;5.242;2023-05-14T05:32:47;24.1;;;15.0;;
32451;SDS011;45528;52.102;5.242;2023-05-14T05:36:00;19.91;;;14.2;;
32451;SDS011;45528;52.102;5.242;2023-05-14T05:37:36;20.5;;;14.5;;
32451;SDS011;45528;52.102;5.242;2023-05-14T05:39:12;21.0;;;13.2;;
32451;SDS011;45528;52.102;5.242;2023-05-14T05:42:24;21.2;;;13.8;;
32451;SDS011;45528;52.102;5.242;2023-05-14T05:44:00;20.5;;;13.5;;
32451;SDS011;45528;52.102;5.242;2023-05-14T05:45:36;23.7;;;14.2;;
32451;SDS011;45528;52.102;5.242;2023-05-14T05:47:13;20.7;;;13.5;;
32451;SDS011;45528;52.102;5.242;2023-05-14T05:50:25;19.3;;;12.6;;
32451;SDS011;45528;52.102;5.242;2023-05-14T05:52:01;16.9;;;12.5;;
32451;SDS011;45528;52.102;5.242;2023-05-14T05:53:38;21.4;;;13.4;;
32451;SDS011;45528;52.102;5.242;2023-05-14T05:56:51;22.6;;;13.6;;
32451;SDS011;45528;52.102;5.242;2023-05-14T05:58:28;19.5;;;12.9;;
32451;SDS011;45528;52.102;5.242;2023-05-14T06:00:04;21.0;;;12.4;;
32451;SDS011;45528;52.102;5.242;2023-05-14T06:03:18;30.5;;;15.3;;
32451;SDS011;45528;52.102;5.242;2023-05-14T06:04:54;25.5;;;14.0;;
32451;SDS011;45528;52.102;5.242;2023-05-14T06:06:30;19.0;;;12.8;;
32451;SDS011;45528;52.102;5.242;2023-05-14T06:08:07;18.11;;;13.3;;
32451;SDS011;45528;52.102;5.242;2023-05-14T06:11:19;18.61;;;11.9;;
32451;SDS011;45528;52.102;5.242;2023-05-14T06:12:55;20.8;;;13.1;;
32451;SDS011;45528;52.102;5.242;2023-05-14T06:14:31;19.11;;;13.5;;
32451;SDS011;45528;52.102;5.242;2023-05-14T06:17:44;21.8;;;12.1;;
32451;SDS011;45528;52.102;5.242;2023-05-14T06:19:21;20.7;;;11.9;;
32451;SDS011;45528;52.102;5.242;2023-05-14T06:20:58;22.8;;;11.8;;
32451;SDS011;45528;52.102;5.242;2023-05-14T06:24:10;16.11;;;11.5;;
32451;SDS011;45528;52.102;5.242;2023-05-14T06:25:48;18.2;;;11.2;;
32451;SDS011;45528;52.102;5.242;2023-05-14T06:27:24;17.2;;;11.6;;
32451;SDS011;45528;52.102;5.242;2023-05-14T06:29:01;21.6;;;10.8;;
32451;SDS011;45528;52.102;5.242;2023-05-14T06:32:13;15.4;;;10.0;;
32451;SDS011;45528;52.102;5.242;2023-05-14T06:33:49;13.1;;;9.4;;
32451;SDS011;45528;52.102;5.242;2023-05-14T06:35:25;16.61;;;9.9;;
32451;SDS011;45528;52.102;5.242;2023-05-14T06:38:37;18.5;;;10.0;;
32451;SDS011;45528;52.102;5.242;2023-05-14T06:40:14;14.9;;;10.4;;
32451;SDS011;45528;52.102;5.242;2023-05-14T06:41:50;15.5;;;9.81;;
32451;SDS011;45528;52.102;5.242;2023-05-14T06:45:02;15.9;;;10.21;;
32451;SDS011;45528;52.102;5.242;2023-05-14T06:46:39;17.0;;;9.81;;
32451;SDS011;45528;52.102;5.242;2023-05-14T06:48:16;15.2;;;10.21;;
32451;SDS011;45528;52.102;5.242;2023-05-14T06:49:53;16.9;;;10.5;;
32451;SDS011;45528;52.102;5.242;2023-05-14T06:53:05;14.6;;;9.9;;
32451;SDS011;45528;52.102;5.242;2023-05-14T06:54:41;16.61;;;10.21;;
32451;SDS011;45528;52.102;5.242;2023-05-14T06:56:17;18.91;;;10.9;;
32451;SDS011;45528;52.102;5.242;2023-05-14T06:59:30;13.5;;;8.9;;
32451;SDS011;45528;52.102;5.242;2023-05-14T07:01:05;14.4;;;9.6;;
32451;SDS011;45528;52.102;5.242;2023-05-14T07:02:42;17.0;;;10.8;;
32451;SDS011;45528;52.102;5.242;2023-05-14T07:05:55;16.61;;;10.21;;
32451;SDS011;45528;52.102;5.242;2023-05-14T07:07:31;12.8;;;9.4;;
32451;SDS011;45528;52.102;5.242;2023-05-14T07:09:08;19.3;;;10.21;;
32451;SDS011;45528;52.102;5.242;2023-05-14T07:12:21;15.2;;;11.0;;
32451;SDS011;45528;52.102;5.242;2023-05-14T07:13:57;16.2;;;10.3;;
32451;SDS011;45528;52.102;5.242;2023-05-14T07:15:33;23.8;;;11.7;;
32451;SDS011;45528;52.102;5.242;2023-05-14T07:17:09;13.2;;;10.1;;
32451;SDS011;45528;52.102;5.242;2023-05-14T07:20:22;16.4;;;11.1;;
32451;SDS011;45528;52.102;5.242;2023-05-14T07:21:58;19.2;;;10.9;;
32451;SDS011;45528;52.102;5.242;2023-05-14T07:23:34;15.5;;;10.1;;
32451;SDS011;45528;52.102;5.242;2023-05-14T07:26:47;15.2;;;9.5;;
32451;SDS011;45528;52.102;5.242;2023-05-14T07:28:23;15.7;;;10.4;;
32451;SDS011;45528;52.102;5.242;2023-05-14T07:30:00;16.3;;;10.5;;
32451;SDS011;45528;52.102;5.242;2023-05-14T07:33:12;14.3;;;10.3;;
32451;SDS011;45528;52.102;5.242;2023-05-14T07:34:48;15.5;;;10.8;;
32451;SDS011;45528;52.102;5.242;2023-05-14T07:36:24;18.7;;;11.1;;
32451;SDS011;45528;52.102;5.242;2023-05-14T07:38:00;18.8;;;11.0;;
32451;SDS011;45528;52.102;5.242;2023-05-14T07:41:14;19.11;;;10.6;;
32451;SDS011;45528;52.102;5.242;2023-05-14T07:42:51;19.61;;;10.6;;
32451;SDS011;45528;52.102;5.242;2023-05-14T07:44:27;18.2;;;10.3;;
32451;SDS011;45528;52.102;5.242;2023-05-14T07:47:40;16.4;;;10.0;;
32451;SDS011;45528;52.102;5.242;2023-05-14T07:49:16;13.1;;;9.21;;
32451;SDS011;45528;52.102;5.242;2023-05-14T07:50:53;14.2;;;9.5;;
32451;SDS011;45528;52.102;5.242;2023-05-14T07:54:06;14.6;;;9.4;;
32451;SDS011;45528;52.102;5.242;2023-05-14T07:55:43;17.11;;;9.0;;
32451;SDS011;45528;52.102;5.242;2023-05-14T07:57:19;11.7;;;8.1;;
32451;SDS011;45528;52.102;5.242;2023-05-14T07:58:56;12.7;;;7.9;;
32451;SDS011;45528;52.102;5.242;2023-05-14T08:02:08;14.0;;;8.31;;
32451;SDS011;45528;52.102;5.242;2023-05-14T08:03:45;11.4;;;8.2;;
32451;SDS011;45528;52.102;5.242;2023-05-14T08:05:21;13.6;;;8.0;;
32451;SDS011;45528;52.102;5.242;2023-05-14T08:08:33;12.6;;;7.9;;
32451;SDS011;45528;52.102;5.242;2023-05-14T08:10:09;11.5;;;7.3;;
32451;SDS011;45528;52.102;5.242;2023-05-14T08:11:45;13.3;;;7.6;;
32451;SDS011;45528;52.102;5.242;2023-05-14T08:14:58;11.1;;;7.5;;
32451;SDS011;45528;52.102;5.242;2023-05-14T08:16:34;10.4;;;6.9;;
32451;SDS011;45528;52.102;5.242;2023-05-14T08:18:10;14.5;;;7.8;;
32451;SDS011;45528;52.102;5.242;2023-05-14T08:21:22;12.6;;;7.7;;
32451;SDS011;45528;52.102;5.242;2023-05-14T08:22:59;11.0;;;6.7;;
32451;SDS011;45528;52.102;5.242;2023-05-14T08:24:35;10.9;;;6.8;;
32451;SDS011;45528;52.102;5.242;2023-05-14T08:26:11;8.9;;;7.0;;
32451;SDS011;45528;52.102;5.242;2023-05-14T08:29:23;12.3;;;6.8;;
32451;SDS011;45528;52.102;5.242;2023-05-14T08:30:59;10.4;;;6.9;;
32451;SDS011;45528;52.102;5.242;2023-05-14T08:32:35;12.1;;;7.0;;
32451;SDS011;45528;52.102;5.242;2023-05-14T08:35:49;10.21;;;6.7;;
32451;SDS011;45528;52.102;5.242;2023-05-14T08:37:27;11.0;;;6.1;;
32451;SDS011;45528;52.102;5.242;2023-05-14T08:39:03;12.8;;;5.7;;
32451;SDS011;45528;52.102;5.242;2023-05-14T08:42:16;11.5;;;5.5;;
32451;SDS011;45528;52.102;5.242;2023-05-14T08:43:56;13.2;;;5.8;;
32451;SDS011;45528;52.102;5.242;2023-05-14T08:45:45;11.5;;;5.3;;
32451;SDS011;45528;52.102;5.242;2023-05-14T08:47:24;9.21;;;5.0;;
32451;SDS011;45528;52.102;5.242;2023-05-14T08:50:54;10.5;;;4.91;;
32451;SDS011;45528;52.102;5.242;2023-05-14T08:52:32;12.1;;;4.41;;
32451;SDS011;45528;52.102;5.242;2023-05-14T08:54:09;12.0;;;5.2;;
32451;SDS011;45528;52.102;5.242;2023-05-14T08:55:47;10.4;;;4.8;;
32451;SDS011;45528;52.102;5.242;2023-05-14T08:59:05;13.0;;;5.4;;
32451;SDS011;45528;52.102;5.242;2023-05-14T09:00:41;12.4;;;5.2;;
32451;SDS011;45528;52.102;5.242;2023-05-14T09:02:19;9.21;;;4.61;;
32451;SDS011;45528;52.102;5.242;2023-05-14T09:03:59;9.9;;;4.61;;
32451;SDS011;45528;52.102;5.242;2023-05-14T09:07:13;10.8;;;4.3;;
32451;SDS011;45528;52.102;5.242;2023-05-14T09:08:50;10.6;;;4.41;;
32451;SDS011;45528;52.102;5.242;2023-05-14T09:10:27;10.9;;;4.61;;
32451;SDS011;45528;52.102;5.242;2023-05-14T09:13:41;9.5;;;4.7;;
32451;SDS011;45528;52.102;5.242;2023-05-14T09:15:17;11.3;;;4.7;;
32451;SDS011;45528;52.102;5.242;2023-05-14T09:16:54;8.2;;;4.5;;
32451;SDS011;45528;52.102;5.242;2023-05-14T09:18:30;10.8;;;5.0;;
32451;SDS011;45528;52.102;5.242;2023-05-14T09:21:44;11.6;;;4.7;;
32451;SDS011;45528;52.102;5.242;2023-05-14T09:23:24;13.2;;;4.5;;
32451;SDS011;45528;52.102;5.242;2023-05-14T09:25:01;14.6;;;5.0;;
32451;SDS011;45528;52.102;5.242;2023-05-14T09:28:17;9.31;;;4.61;;
32451;SDS011;45528;52.102;5.242;2023-05-14T09:29:53;11.1;;;5.0;;
32451;SDS011;45528;52.102;5.242;2023-05-14T09:31:30;13.6;;;4.61;;
32451;SDS011;45528;52.102;5.242;2023-05-14T09:33:09;10.7;;;5.0;;
32451;SDS011;45528;52.102;5.242;2023-05-14T09:36:21;10.1;;;4.2;;
32451;SDS011;45528;52.102;5.242;2023-05-14T09:37:58;6.2;;;3.6;;
32451;SDS011;45528;52.102;5.242;2023-05-14T09:39:35;10.4;;;4.5;;
32451;SDS011;45528;52.102;5.242;2023-05-14T09:42:49;8.31;;;4.3;;
32451;SDS011;45528;52.102;5.242;2023-05-14T09:44:25;9.21;;;4.3;;
32451;SDS011;45528;52.102;5.242;2023-05-14T09:46:03;11.0;;;4.61;;
32451;SDS011;45528;52.102;5.242;2023-05-14T09:49:17;9.21;;;4.3;;
32451;SDS011;45528;52.102;5.242;2023-05-14T09:50:54;8.2;;;4.1;;
32451;SDS011;45528;52.102;5.242;2023-05-14T09:52:31;7.7;;;4.2;;
32451;SDS011;45528;52.102;5.242;2023-05-14T09:54:08;11.5;;;4.5;;
32451;SDS011;45528;52.102;5.242;2023-05-14T09:57:22;11.7;;;4.61;;
32451;SDS011;45528;52.102;5.242;2023-05-14T09:58:59;12.9;;;4.41;;
32451;SDS011;45528;52.102;5.242;2023-05-14T10:00:36;11.5;;;4.5;;
32451;SDS011;45528;52.102;5.242;2023-05-14T10:03:58;10.7;;;4.2;;
32451;SDS011;45528;52.102;5.242;2023-05-14T10:05:38;10.1;;;4.3;;
32451;SDS011;45528;52.102;5.242;2023-05-14T10:07:18;10.5;;;4.5;;
32451;SDS011;45528;52.102;5.242;2023-05-14T10:08:59;7.4;;;3.8;;
32451;SDS011;45528;52.102;5.242;2023-05-14T10:12:15;11.9;;;4.0;;
32451;SDS011;45528;52.102;5.242;2023-05-14T10:14:01;11.6;;;3.8;;
32451;SDS011;45528;52.102;5.242;2023-05-14T10:15:42;10.3;;;4.41;;
32451;SDS011;45528;52.102;5.242;2023-05-14T10:17:28;10.6;;;3.9;;
32451;SDS011;45528;52.102;5.242;2023-05-14T10:19:08;11.8;;;4.1;;
32451;SDS011;45528;52.102;5.242;2023-05-14T10:22:40;7.0;;;3.6;;
32451;SDS011;45528;52.102;5.242;2023-05-14T10:24:17;10.4;;;3.4;;
32451;SDS011;45528;52.102;5.242;2023-05-14T10:25:55;9.5;;;3.8;;
32451;SDS011;45528;52.102;5.242;2023-05-14T10:27:32;9.1;;;3.6;;
32451;SDS011;45528;52.102;5.242;2023-05-14T10:30:46;9.9;;;4.2;;
32451;SDS011;45528;52.102;5.242;2023-05-14T10:32:24;7.9;;;3.5;;
32451;SDS011;45528;52.102;5.242;2023-05-14T10:34:00;7.6;;;3.6;;
32451;SDS011;45528;52.102;5.242;2023-05-14T10:37:45;6.4;;;3.6;;
32451;SDS011;45528;52.102;5.242;2023-05-14T10:39:22;13.0;;;4.1;;
32451;SDS011;45528;52.102;5.242;2023-05-14T10:41:15;9.81;;;4.0;;
32451;SDS011;45528;52.102;5.242;2023-05-14T10:42:51;7.7;;;3.8;;
32451;SDS011;45528;52.102;5.242;2023-05-14T10:44:30;9.0;;;3.5;;
32451;SDS011;45528;52.102;5.242;2023-05-14T10:47:49;9.4;;;3.8;;
32451;SDS011;45528;52.102;5.242;2023-05-14T10:49:26;8.1;;;3.7;;
32451;SDS011;45528;52.102;5.242;2023-05-14T10:51:02;12.3;;;4.3;;
32451;SDS011;45528;52.102;5.242;2023-05-14T10:52:39;11.1;;;3.9;;
32451;SDS011;45528;52.102;5.242;2023-05-14T10:55:53;9.21;;;3.8;;
32451;SDS011;45528;52.102;5.242;2023-05-14T10:57:31;8.9;;;3.6;;
32451;SDS011;45528;52.102;5.242;2023-05-14T10:59:07;7.5;;;3.7;;
32451;SDS011;45528;52.102;5.242;2023-05-14T11:02:24;9.21;;;3.8;;
32451;SDS011;45528;52.102;5.242;2023-05-14T11:04:01;9.9;;;3.7;;
32451;SDS011;45528;52.102;5.242;2023-05-14T11:05:38;7.6;;;3.9;;
32451;SDS011;45528;52.102;5.242;2023-05-14T11:07:15;9.71;;;4.0;;
32451;SDS011;45528;52.102;5.242;2023-05-14T11:10:31;11.3;;;3.8;;
32451;SDS011;45528;52.102;5.242;2023-05-14T11:12:07;9.0;;;3.6;;
32451;SDS011;45528;52.102;5.242;2023-05-14T11:13:44;10.0;;;3.5;;
32451;SDS011;45528;52.102;5.242;2023-05-14T11:17:00;7.5;;;4.1;;
32451;SDS011;45528;52.102;5.242;2023-05-14T11:18:37;8.71;;;3.7;;
32451;SDS011;45528;52.102;5.242;2023-05-14T11:20:14;9.71;;;3.9;;
32451;SDS011;45528;52.102;5.242;2023-05-14T11:23:27;6.2;;;3.5;;
32451;SDS011;45528;52.102;5.242;2023-05-14T11:25:04;7.7;;;3.4;;
32451;SDS011;45528;52.102;5.242;2023-05-14T11:26:42;11.1;;;3.9;;
32451;SDS011;45528;52.102;5.242;2023-05-14T11:28:19;8.81;;;4.0;;
32451;SDS011;45528;52.102;5.242;2023-05-14T11:31:33;8.71;;;4.1;;
32451;SDS011;45528;52.102;5.242;2023-05-14T11:33:10;8.81;;;3.9;;
32451;SDS011;45528;52.102;5.242;2023-05-14T11:34:47;8.81;;;4.0;;
32451;SDS011;45528;52.102;5.242;2023-05-14T11:37:59;8.2;;;3.8;;
32451;SDS011;45528;52.102;5.242;2023-05-14T11:39:35;10.0;;;4.0;;
32451;SDS011;45528;52.102;5.242;2023-05-14T11:41:12;8.5;;;3.8;;
32451;SDS011;45528;52.102;5.242;2023-05-14T11:42:49;8.31;;;3.5;;
32451;SDS011;45528;52.102;5.242;2023-05-14T11:46:02;8.1;;;3.7;;
32451;SDS011;45528;52.102;5.242;2023-05-14T11:47:39;8.0;;;3.9;;
32451;SDS011;45528;52.102;5.242;2023-05-14T11:49:16;9.31;;;4.2;;
32451;SDS011;45528;52.102;5.242;2023-05-14T11:52:36;10.0;;;4.0;;
32451;SDS011;45528;52.102;5.242;2023-05-14T11:54:14;10.0;;;4.5;;
32451;SDS011;45528;52.102;5.242;2023-05-14T11:55:50;8.71;;;3.8;;
32451;SDS011;45528;52.102;5.242;2023-05-14T11:57:29;12.0;;;3.7;;
32451;SDS011;45528;52.102;5.242;2023-05-14T12:00:43;12.2;;;4.0;;
32451;SDS011;45528;52.102;5.242;2023-05-14T12:02:20;8.2;;;3.7;;
32451;SDS011;45528;52.102;5.242;2023-05-14T12:03:58;7.8;;;3.9;;
32451;SDS011;45528;52.102;5.242;2023-05-14T12:07:14;10.4;;;3.9;;
32451;SDS011;45528;52.102;5.242;2023-05-14T12:08:51;9.71;;;3.5;;
32451;SDS011;45528;52.102;5.242;2023-05-14T12:10:40;6.6;;;3.3;;
32451;SDS011;45528;52.102;5.242;2023-05-14T12:12:17;7.0;;;3.9;;
32451;SDS011;45528;52.102;5.242;2023-05-14T12:15:34;7.4;;;3.7;;
32451;SDS011;45528;52.102;5.242;2023-05-14T12:17:13;9.4;;;3.4;;
32451;SDS011;45528;52.102;5.242;2023-05-14T12:18:50;10.4;;;3.8;;
32451;SDS011;45528;52.102;5.242;2023-05-14T12:22:04;11.3;;;3.8;;
32451;SDS011;45528;52.102;5.242;2023-05-14T12:23:43;10.9;;;4.1;;
32451;SDS011;45528;52.102;5.242;2023-05-14T12:25:19;8.1;;;3.7;;
32451;SDS011;45528;52.102;5.242;2023-05-14T12:26:59;7.5;;;3.4;;
32451;SDS011;45528;52.102;5.242;2023-05-14T12:30:14;7.5;;;3.9;;
32451;SDS011;45528;52.102;5.242;2023-05-14T12:31:51;9.1;;;3.5;;
32451;SDS011;45528;52.102;5.242;2023-05-14T12:33:29;10.9;;;3.3;;
32451;SDS011;45528;52.102;5.242;2023-05-14T12:35:06;9.71;;;3.8;;
32451;SDS011;45528;52.102;5.242;2023-05-14T12:38:19;8.6;;;4.2;;
32451;SDS011;45528;52.102;5.242;2023-05-14T12:39:55;7.8;;;3.7;;
32451;SDS011;45528;52.102;5.242;2023-05-14T12:41:32;8.0;;;3.5;;